sensor_id;sensor_type;location;lat;lon;timestamp;P1;durP1;ratioP1;P2;durP2;ratioP2
54935;SDS011;40838;50.676;7.838;2024-01-30T00:00:17;24.05;;;12.93;;
54935;SDS011;40838;50.676;7.838;2024-01-30T00:02:45;20.80;;;12.70;;
54935;SDS011;40838;50.676;7.838;2024-01-30T00:05:12;20.05;;;12.88;;
54935;SDS011;40838;50.676;7.838;2024-01-30T00:07:41;27.25;;;14.48;;
54935;SDS011;40838;50.676;7.838;2024-01-30T00:10:08;21.17;;;12.20;;
54935;SDS011;40838;50.676;7.838;2024-01-30T00:12:35;25.45;;;12.30;;
54935;SDS011;40838;50.676;7.838;2024-01-30T00:15:03;26.30;;;12.52;;
54935;SDS011;40838;50.676;7.838;2024-01-30T00:17:33;22.88;;;12.85;;
54935;SDS011;40838;50.676;7.838;2024-01-30T00:20:00;26.40;;;12.55;;
54935;SDS011;40838;50.676;7.838;2024-01-30T00:22:30;22.98;;;13.20;;
54935;SDS011;40838;50.676;7.838;2024-01-30T00:24:59;21.75;;;13.15;;
54935;SDS011;40838;50.676;7.838;2024-01-30T00:27:26;23.08;;;13.65;;
54935;SDS011;40838;50.676;7.838;2024-01-30T00:29:53;24.50;;;13.25;;
54935;SDS011;40838;50.676;7.838;2024-01-30T00:32:20;21.45;;;12.88;;
54935;SDS011;40838;50.676;7.838;2024-01-30T00:34:48;21.38;;;12.40;;
54935;SDS011;40838;50.676;7.838;2024-01-30T00:37:15;27.67;;;12.60;;
54935;SDS011;40838;50.676;7.838;2024-01-30T00:39:42;24.67;;;13.82;;
54935;SDS011;40838;50.676;7.838;2024-01-30T00:42:11;25.20;;;13.65;;
54935;SDS011;40838;50.676;7.838;2024-01-30T00:44:38;22.85;;;13.45;;
54935;SDS011;40838;50.676;7.838;2024-01-30T00:47:05;22.52;;;12.93;;
54935;SDS011;40838;50.676;7.838;2024-01-30T00:49:32;23.67;;;13.70;;
54935;SDS011;40838;50.676;7.838;2024-01-30T00:51:59;24.42;;;13.00;;
54935;SDS011;40838;50.676;7.838;2024-01-30T00:54:28;20.55;;;13.20;;
54935;SDS011;40838;50.676;7.838;2024-01-30T00:56:55;21.95;;;12.15;;
54935;SDS011;40838;50.676;7.838;2024-01-30T00:59:24;24.90;;;12.63;;
54935;SDS011;40838;50.676;7.838;2024-01-30T01:01:51;22.83;;;12.70;;
54935;SDS011;40838;50.676;7.838;2024-01-30T01:04:18;23.63;;;12.35;;
54935;SDS011;40838;50.676;7.838;2024-01-30T01:06:46;27.33;;;13.60;;
54935;SDS011;40838;50.676;7.838;2024-01-30T01:09:13;21.90;;;13.50;;
54935;SDS011;40838;50.676;7.838;2024-01-30T01:11:40;21.25;;;13.07;;
54935;SDS011;40838;50.676;7.838;2024-01-30T01:14:07;24.92;;;13.02;;
54935;SDS011;40838;50.676;7.838;2024-01-30T01:16:36;20.50;;;12.52;;
54935;SDS011;40838;50.676;7.838;2024-01-30T01:19:03;23.55;;;12.95;;
54935;SDS011;40838;50.676;7.838;2024-01-30T01:21:30;24.67;;;12.07;;
54935;SDS011;40838;50.676;7.838;2024-01-30T01:23:57;23.15;;;12.65;;
54935;SDS011;40838;50.676;7.838;2024-01-30T01:26:24;21.88;;;13.02;;
54935;SDS011;40838;50.676;7.838;2024-01-30T01:28:51;23.33;;;13.30;;
54935;SDS011;40838;50.676;7.838;2024-01-30T01:31:18;21.63;;;13.13;;
54935;SDS011;40838;50.676;7.838;2024-01-30T01:33:49;27.15;;;12.93;;
54935;SDS011;40838;50.676;7.838;2024-01-30T01:36:16;26.02;;;13.82;;
54935;SDS011;40838;50.676;7.838;2024-01-30T01:38:43;23.85;;;13.75;;
54935;SDS011;40838;50.676;7.838;2024-01-30T01:41:10;25.20;;;12.40;;
54935;SDS011;40838;50.676;7.838;2024-01-30T01:43:37;27.27;;;13.48;;
54935;SDS011;40838;50.676;7.838;2024-01-30T01:46:04;23.83;;;13.32;;
54935;SDS011;40838;50.676;7.838;2024-01-30T01:48:32;25.23;;;13.50;;
54935;SDS011;40838;50.676;7.838;2024-01-30T01:51:01;25.30;;;13.32;;
54935;SDS011;40838;50.676;7.838;2024-01-30T01:53:29;28.85;;;13.00;;
54935;SDS011;40838;50.676;7.838;2024-01-30T01:55:56;22.73;;;12.02;;
54935;SDS011;40838;50.676;7.838;2024-01-30T01:58:24;23.13;;;11.38;;
54935;SDS011;40838;50.676;7.838;2024-01-30T02:00:54;23.05;;;12.07;;
54935;SDS011;40838;50.676;7.838;2024-01-30T02:03:22;23.48;;;12.55;;
54935;SDS011;40838;50.676;7.838;2024-01-30T02:05:50;22.20;;;13.07;;
54935;SDS011;40838;50.676;7.838;2024-01-30T02:08:19;21.25;;;12.23;;
54935;SDS011;40838;50.676;7.838;2024-01-30T02:10:47;24.70;;;12.50;;
54935;SDS011;40838;50.676;7.838;2024-01-30T02:13:14;24.02;;;12.35;;
54935;SDS011;40838;50.676;7.838;2024-01-30T02:15:41;22.42;;;12.07;;
54935;SDS011;40838;50.676;7.838;2024-01-30T02:18:08;24.38;;;11.50;;
54935;SDS011;40838;50.676;7.838;2024-01-30T02:20:35;22.88;;;12.10;;
54935;SDS011;40838;50.676;7.838;2024-01-30T02:23:06;22.88;;;11.95;;
54935;SDS011;40838;50.676;7.838;2024-01-30T02:25:38;17.42;;;11.73;;
54935;SDS011;40838;50.676;7.838;2024-01-30T02:28:09;18.45;;;12.20;;
54935;SDS011;40838;50.676;7.838;2024-01-30T02:30:37;20.92;;;11.75;;
54935;SDS011;40838;50.676;7.838;2024-01-30T02:33:04;19.42;;;11.85;;
54935;SDS011;40838;50.676;7.838;2024-01-30T02:35:31;21.65;;;12.05;;
54935;SDS011;40838;50.676;7.838;2024-01-30T02:37:59;23.95;;;12.80;;
54935;SDS011;40838;50.676;7.838;2024-01-30T02:40:28;26.30;;;12.70;;
54935;SDS011;40838;50.676;7.838;2024-01-30T02:42:55;20.27;;;11.60;;
54935;SDS011;40838;50.676;7.838;2024-01-30T02:45:22;19.25;;;11.23;;
54935;SDS011;40838;50.676;7.838;2024-01-30T02:47:49;21.17;;;11.88;;
54935;SDS011;40838;50.676;7.838;2024-01-30T02:50:16;18.25;;;11.77;;
54935;SDS011;40838;50.676;7.838;2024-01-30T02:52:43;20.40;;;12.50;;
54935;SDS011;40838;50.676;7.838;2024-01-30T02:55:11;20.48;;;12.00;;
54935;SDS011;40838;50.676;7.838;2024-01-30T02:57:39;22.08;;;11.40;;
54935;SDS011;40838;50.676;7.838;2024-01-30T03:00:07;24.50;;;12.55;;
54935;SDS011;40838;50.676;7.838;2024-01-30T03:02:34;16.13;;;10.20;;
54935;SDS011;40838;50.676;7.838;2024-01-30T03:05:02;19.20;;;10.93;;
54935;SDS011;40838;50.676;7.838;2024-01-30T03:07:30;21.67;;;11.77;;
54935;SDS011;40838;50.676;7.838;2024-01-30T03:09:57;21.55;;;11.65;;
54935;SDS011;40838;50.676;7.838;2024-01-30T03:12:24;18.20;;;10.85;;
54935;SDS011;40838;50.676;7.838;2024-01-30T03:14:53;23.88;;;11.50;;
54935;SDS011;40838;50.676;7.838;2024-01-30T03:17:20;18.65;;;10.90;;
54935;SDS011;40838;50.676;7.838;2024-01-30T03:19:47;20.10;;;10.82;;
54935;SDS011;40838;50.676;7.838;2024-01-30T03:22:14;20.90;;;11.68;;
54935;SDS011;40838;50.676;7.838;2024-01-30T03:24:41;22.98;;;11.57;;
54935;SDS011;40838;50.676;7.838;2024-01-30T03:27:08;22.33;;;10.77;;
54935;SDS011;40838;50.676;7.838;2024-01-30T03:29:35;17.67;;;10.10;;
54935;SDS011;40838;50.676;7.838;2024-01-30T03:32:04;21.83;;;11.18;;
54935;SDS011;40838;50.676;7.838;2024-01-30T03:34:31;19.17;;;11.25;;
54935;SDS011;40838;50.676;7.838;2024-01-30T03:36:59;21.38;;;11.20;;
54935;SDS011;40838;50.676;7.838;2024-01-30T03:39:26;24.00;;;11.18;;
54935;SDS011;40838;50.676;7.838;2024-01-30T03:41:53;21.95;;;10.25;;
54935;SDS011;40838;50.676;7.838;2024-01-30T03:44:20;28.40;;;11.15;;
54935;SDS011;40838;50.676;7.838;2024-01-30T03:46:47;20.63;;;10.88;;
54935;SDS011;40838;50.676;7.838;2024-01-30T03:49:15;21.60;;;10.95;;
54935;SDS011;40838;50.676;7.838;2024-01-30T03:51:42;25.58;;;11.95;;
54935;SDS011;40838;50.676;7.838;2024-01-30T03:54:09;19.73;;;10.57;;
54935;SDS011;40838;50.676;7.838;2024-01-30T03:56:36;20.90;;;10.48;;
54935;SDS011;40838;50.676;7.838;2024-01-30T03:59:03;20.63;;;10.93;;
54935;SDS011;40838;50.676;7.838;2024-01-30T04:01:30;19.08;;;10.88;;
54935;SDS011;40838;50.676;7.838;2024-01-30T04:03:57;18.27;;;10.85;;
54935;SDS011;40838;50.676;7.838;2024-01-30T04:06:26;24.08;;;11.85;;
54935;SDS011;40838;50.676;7.838;2024-01-30T04:08:53;17.98;;;11.07;;
54935;SDS011;40838;50.676;7.838;2024-01-30T04:11:20;18.85;;;10.20;;
54935;SDS011;40838;50.676;7.838;2024-01-30T04:13:47;18.90;;;10.88;;
54935;SDS011;40838;50.676;7.838;2024-01-30T04:16:19;25.38;;;12.43;;
54935;SDS011;40838;50.676;7.838;2024-01-30T04:18:47;18.80;;;10.88;;
54935;SDS011;40838;50.676;7.838;2024-01-30T04:21:14;20.88;;;10.68;;
54935;SDS011;40838;50.676;7.838;2024-01-30T04:23:42;20.27;;;10.85;;
54935;SDS011;40838;50.676;7.838;2024-01-30T04:26:10;20.70;;;11.27;;
54935;SDS011;40838;50.676;7.838;2024-01-30T04:28:37;19.65;;;11.40;;
54935;SDS011;40838;50.676;7.838;2024-01-30T04:31:04;15.50;;;10.02;;
54935;SDS011;40838;50.676;7.838;2024-01-30T04:33:31;20.67;;;11.35;;
54935;SDS011;40838;50.676;7.838;2024-01-30T04:35:58;17.73;;;10.40;;
54935;SDS011;40838;50.676;7.838;2024-01-30T04:38:25;18.65;;;11.35;;
54935;SDS011;40838;50.676;7.838;2024-01-30T04:40:53;23.17;;;11.15;;
54935;SDS011;40838;50.676;7.838;2024-01-30T04:43:20;17.63;;;10.57;;
54935;SDS011;40838;50.676;7.838;2024-01-30T04:45:48;23.45;;;11.80;;
54935;SDS011;40838;50.676;7.838;2024-01-30T04:48:15;20.17;;;11.80;;
54935;SDS011;40838;50.676;7.838;2024-01-30T04:50:42;21.02;;;12.18;;
54935;SDS011;40838;50.676;7.838;2024-01-30T04:53:10;27.85;;;12.93;;
54935;SDS011;40838;50.676;7.838;2024-01-30T04:55:37;20.75;;;11.27;;
54935;SDS011;40838;50.676;7.838;2024-01-30T04:58:05;21.05;;;10.68;;
54935;SDS011;40838;50.676;7.838;2024-01-30T05:00:33;22.08;;;11.70;;
54935;SDS011;40838;50.676;7.838;2024-01-30T05:03:00;25.92;;;11.85;;
54935;SDS011;40838;50.676;7.838;2024-01-30T05:05:30;18.40;;;10.73;;
54935;SDS011;40838;50.676;7.838;2024-01-30T05:07:57;17.77;;;10.38;;
54935;SDS011;40838;50.676;7.838;2024-01-30T05:10:24;17.30;;;11.07;;
54935;SDS011;40838;50.676;7.838;2024-01-30T05:12:51;20.52;;;10.07;;
54935;SDS011;40838;50.676;7.838;2024-01-30T05:15:20;17.13;;;10.80;;
54935;SDS011;40838;50.676;7.838;2024-01-30T05:17:47;16.15;;;10.05;;
54935;SDS011;40838;50.676;7.838;2024-01-30T05:20:14;23.75;;;10.90;;
54935;SDS011;40838;50.676;7.838;2024-01-30T05:22:41;20.02;;;11.10;;
54935;SDS011;40838;50.676;7.838;2024-01-30T05:25:10;18.27;;;10.60;;
54935;SDS011;40838;50.676;7.838;2024-01-30T05:27:38;17.70;;;9.65;;
54935;SDS011;40838;50.676;7.838;2024-01-30T05:30:05;20.75;;;9.88;;
54935;SDS011;40838;50.676;7.838;2024-01-30T05:32:35;15.93;;;10.13;;
54935;SDS011;40838;50.676;7.838;2024-01-30T05:35:02;16.60;;;10.15;;
54935;SDS011;40838;50.676;7.838;2024-01-30T05:37:30;18.27;;;9.60;;
54935;SDS011;40838;50.676;7.838;2024-01-30T05:39:57;16.33;;;9.68;;
54935;SDS011;40838;50.676;7.838;2024-01-30T05:42:25;17.35;;;10.00;;
54935;SDS011;40838;50.676;7.838;2024-01-30T05:44:52;24.20;;;10.43;;
54935;SDS011;40838;50.676;7.838;2024-01-30T05:47:20;16.08;;;9.98;;
54935;SDS011;40838;50.676;7.838;2024-01-30T05:49:48;21.70;;;10.93;;
54935;SDS011;40838;50.676;7.838;2024-01-30T05:52:16;22.02;;;9.93;;
54935;SDS011;40838;50.676;7.838;2024-01-30T05:54:44;16.60;;;9.75;;
54935;SDS011;40838;50.676;7.838;2024-01-30T05:57:11;19.73;;;8.88;;
54935;SDS011;40838;50.676;7.838;2024-01-30T05:59:38;21.95;;;11.00;;
54935;SDS011;40838;50.676;7.838;2024-01-30T06:02:05;20.85;;;9.88;;
54935;SDS011;40838;50.676;7.838;2024-01-30T06:04:32;22.42;;;10.23;;
54935;SDS011;40838;50.676;7.838;2024-01-30T06:07:01;18.40;;;10.13;;
54935;SDS011;40838;50.676;7.838;2024-01-30T06:09:28;17.77;;;9.48;;
54935;SDS011;40838;50.676;7.838;2024-01-30T06:11:56;23.00;;;10.65;;
54935;SDS011;40838;50.676;7.838;2024-01-30T06:14:23;25.33;;;10.93;;
54935;SDS011;40838;50.676;7.838;2024-01-30T06:16:50;19.45;;;9.52;;
54935;SDS011;40838;50.676;7.838;2024-01-30T06:19:17;21.73;;;10.57;;
54935;SDS011;40838;50.676;7.838;2024-01-30T06:21:44;18.50;;;10.23;;
54935;SDS011;40838;50.676;7.838;2024-01-30T06:24:13;20.15;;;11.15;;
54935;SDS011;40838;50.676;7.838;2024-01-30T06:26:40;17.92;;;9.85;;
54935;SDS011;40838;50.676;7.838;2024-01-30T06:29:07;21.13;;;10.50;;
54935;SDS011;40838;50.676;7.838;2024-01-30T06:31:39;18.77;;;11.13;;
54935;SDS011;40838;50.676;7.838;2024-01-30T06:34:06;19.50;;;10.18;;
54935;SDS011;40838;50.676;7.838;2024-01-30T06:36:34;19.38;;;10.15;;
54935;SDS011;40838;50.676;7.838;2024-01-30T06:39:01;20.13;;;9.65;;
54935;SDS011;40838;50.676;7.838;2024-01-30T06:41:30;17.48;;;10.23;;
54935;SDS011;40838;50.676;7.838;2024-01-30T06:43:57;16.55;;;9.93;;
54935;SDS011;40838;50.676;7.838;2024-01-30T06:46:24;21.42;;;11.90;;
54935;SDS011;40838;50.676;7.838;2024-01-30T06:48:51;16.92;;;10.20;;
54935;SDS011;40838;50.676;7.838;2024-01-30T06:51:18;18.92;;;10.25;;
54935;SDS011;40838;50.676;7.838;2024-01-30T06:53:45;21.52;;;10.50;;
54935;SDS011;40838;50.676;7.838;2024-01-30T06:56:12;17.63;;;10.10;;
54935;SDS011;40838;50.676;7.838;2024-01-30T06:58:41;17.92;;;10.63;;
54935;SDS011;40838;50.676;7.838;2024-01-30T07:01:08;16.35;;;10.50;;
54935;SDS011;40838;50.676;7.838;2024-01-30T07:03:35;18.85;;;9.85;;
54935;SDS011;40838;50.676;7.838;2024-01-30T07:06:02;17.88;;;9.90;;
54935;SDS011;40838;50.676;7.838;2024-01-30T07:08:30;16.92;;;9.63;;
54935;SDS011;40838;50.676;7.838;2024-01-30T07:10:57;19.75;;;10.73;;
54935;SDS011;40838;50.676;7.838;2024-01-30T07:13:24;18.48;;;9.90;;
54935;SDS011;40838;50.676;7.838;2024-01-30T07:15:53;22.80;;;11.73;;
54935;SDS011;40838;50.676;7.838;2024-01-30T07:18:20;17.10;;;10.52;;
54935;SDS011;40838;50.676;7.838;2024-01-30T07:20:47;18.48;;;11.93;;
54935;SDS011;40838;50.676;7.838;2024-01-30T07:23:15;20.85;;;11.05;;
54935;SDS011;40838;50.676;7.838;2024-01-30T07:25:43;21.48;;;10.82;;
54935;SDS011;40838;50.676;7.838;2024-01-30T07:28:10;18.88;;;10.43;;
54935;SDS011;40838;50.676;7.838;2024-01-30T07:30:37;17.42;;;9.95;;
54935;SDS011;40838;50.676;7.838;2024-01-30T07:33:06;20.75;;;10.73;;
54935;SDS011;40838;50.676;7.838;2024-01-30T07:35:33;18.88;;;10.82;;
54935;SDS011;40838;50.676;7.838;2024-01-30T07:38:01;20.10;;;11.15;;
54935;SDS011;40838;50.676;7.838;2024-01-30T07:40:28;18.65;;;10.95;;
54935;SDS011;40838;50.676;7.838;2024-01-30T07:42:55;19.23;;;11.43;;
54935;SDS011;40838;50.676;7.838;2024-01-30T07:45:22;20.15;;;11.02;;
54935;SDS011;40838;50.676;7.838;2024-01-30T07:47:50;22.02;;;10.18;;
54935;SDS011;40838;50.676;7.838;2024-01-30T07:50:19;28.70;;;12.20;;
54935;SDS011;40838;50.676;7.838;2024-01-30T07:52:46;22.77;;;11.10;;
54935;SDS011;40838;50.676;7.838;2024-01-30T07:55:16;20.40;;;9.25;;
54935;SDS011;40838;50.676;7.838;2024-01-30T07:57:44;19.50;;;9.30;;
54935;SDS011;40838;50.676;7.838;2024-01-30T08:00:12;16.50;;;9.38;;
54935;SDS011;40838;50.676;7.838;2024-01-30T08:02:40;20.55;;;10.93;;
54935;SDS011;40838;50.676;7.838;2024-01-30T08:05:07;19.75;;;9.65;;
54935;SDS011;40838;50.676;7.838;2024-01-30T08:07:37;17.52;;;10.25;;
54935;SDS011;40838;50.676;7.838;2024-01-30T08:10:06;25.92;;;10.40;;
54935;SDS011;40838;50.676;7.838;2024-01-30T08:12:33;18.15;;;9.85;;
54935;SDS011;40838;50.676;7.838;2024-01-30T08:15:04;15.35;;;9.63;;
54935;SDS011;40838;50.676;7.838;2024-01-30T08:17:32;20.30;;;10.40;;
54935;SDS011;40838;50.676;7.838;2024-01-30T08:19:59;17.67;;;9.43;;
54935;SDS011;40838;50.676;7.838;2024-01-30T08:22:26;16.73;;;9.90;;
54935;SDS011;40838;50.676;7.838;2024-01-30T08:24:54;22.75;;;9.07;;
54935;SDS011;40838;50.676;7.838;2024-01-30T08:27:21;17.25;;;8.95;;
54935;SDS011;40838;50.676;7.838;2024-01-30T08:29:48;14.15;;;8.43;;
54935;SDS011;40838;50.676;7.838;2024-01-30T08:32:16;14.40;;;8.43;;
54935;SDS011;40838;50.676;7.838;2024-01-30T08:34:43;15.85;;;8.68;;
54935;SDS011;40838;50.676;7.838;2024-01-30T08:37:10;15.98;;;8.25;;
54935;SDS011;40838;50.676;7.838;2024-01-30T08:39:37;13.07;;;8.25;;
54935;SDS011;40838;50.676;7.838;2024-01-30T08:42:06;15.13;;;8.60;;
54935;SDS011;40838;50.676;7.838;2024-01-30T08:44:33;19.02;;;8.18;;
54935;SDS011;40838;50.676;7.838;2024-01-30T08:47:00;18.55;;;8.07;;
54935;SDS011;40838;50.676;7.838;2024-01-30T08:49:28;18.00;;;9.05;;
54935;SDS011;40838;50.676;7.838;2024-01-30T08:51:55;15.63;;;8.90;;
54935;SDS011;40838;50.676;7.838;2024-01-30T08:54:23;19.88;;;8.50;;
54935;SDS011;40838;50.676;7.838;2024-01-30T08:56:50;16.30;;;8.27;;
54935;SDS011;40838;50.676;7.838;2024-01-30T08:59:20;12.85;;;7.15;;
54935;SDS011;40838;50.676;7.838;2024-01-30T09:01:47;12.75;;;7.28;;
54935;SDS011;40838;50.676;7.838;2024-01-30T09:04:14;14.32;;;7.20;;
54935;SDS011;40838;50.676;7.838;2024-01-30T09:06:41;13.38;;;7.57;;
54935;SDS011;40838;50.676;7.838;2024-01-30T09:09:08;13.73;;;7.85;;
54935;SDS011;40838;50.676;7.838;2024-01-30T09:11:35;9.30;;;6.32;;
54935;SDS011;40838;50.676;7.838;2024-01-30T09:14:02;12.05;;;6.82;;
54935;SDS011;40838;50.676;7.838;2024-01-30T09:16:31;13.07;;;7.03;;
54935;SDS011;40838;50.676;7.838;2024-01-30T09:18:58;18.30;;;7.88;;
54935;SDS011;40838;50.676;7.838;2024-01-30T09:21:25;25.08;;;8.85;;
54935;SDS011;40838;50.676;7.838;2024-01-30T09:23:53;11.65;;;7.30;;
54935;SDS011;40838;50.676;7.838;2024-01-30T09:26:21;14.77;;;8.32;;
54935;SDS011;40838;50.676;7.838;2024-01-30T09:28:48;14.93;;;7.55;;
54935;SDS011;40838;50.676;7.838;2024-01-30T09:31:15;13.38;;;7.75;;
54935;SDS011;40838;50.676;7.838;2024-01-30T09:33:44;14.75;;;7.47;;
54935;SDS011;40838;50.676;7.838;2024-01-30T09:36:13;15.18;;;8.05;;
54935;SDS011;40838;50.676;7.838;2024-01-30T09:38:43;17.88;;;6.93;;
54935;SDS011;40838;50.676;7.838;2024-01-30T09:41:10;19.08;;;8.20;;
54935;SDS011;40838;50.676;7.838;2024-01-30T09:43:39;14.57;;;7.22;;
54935;SDS011;40838;50.676;7.838;2024-01-30T09:46:06;17.67;;;7.57;;
54935;SDS011;40838;50.676;7.838;2024-01-30T09:48:39;16.58;;;7.60;;
54935;SDS011;40838;50.676;7.838;2024-01-30T09:51:09;12.50;;;6.72;;
54935;SDS011;40838;50.676;7.838;2024-01-30T09:53:37;13.13;;;7.40;;
54935;SDS011;40838;50.676;7.838;2024-01-30T09:56:05;15.60;;;6.95;;
54935;SDS011;40838;50.676;7.838;2024-01-30T09:58:33;11.80;;;6.47;;
54935;SDS011;40838;50.676;7.838;2024-01-30T10:01:00;17.15;;;6.65;;
54935;SDS011;40838;50.676;7.838;2024-01-30T10:03:27;12.18;;;6.82;;
54935;SDS011;40838;50.676;7.838;2024-01-30T10:05:54;14.35;;;6.30;;
54935;SDS011;40838;50.676;7.838;2024-01-30T10:08:24;12.68;;;6.75;;
54935;SDS011;40838;50.676;7.838;2024-01-30T10:10:55;10.20;;;6.07;;
54935;SDS011;40838;50.676;7.838;2024-01-30T10:13:22;9.07;;;5.40;;
54935;SDS011;40838;50.676;7.838;2024-01-30T10:15:49;12.27;;;5.47;;
54935;SDS011;40838;50.676;7.838;2024-01-30T10:18:17;11.38;;;5.85;;
54935;SDS011;40838;50.676;7.838;2024-01-30T10:20:45;10.73;;;5.13;;
54935;SDS011;40838;50.676;7.838;2024-01-30T10:23:13;10.10;;;5.50;;
54935;SDS011;40838;50.676;7.838;2024-01-30T10:25:41;10.23;;;5.47;;
54935;SDS011;40838;50.676;7.838;2024-01-30T10:28:09;9.25;;;5.03;;
54935;SDS011;40838;50.676;7.838;2024-01-30T10:30:36;8.18;;;5.38;;
54935;SDS011;40838;50.676;7.838;2024-01-30T10:33:03;11.68;;;6.10;;
54935;SDS011;40838;50.676;7.838;2024-01-30T10:35:30;12.50;;;5.45;;
54935;SDS011;40838;50.676;7.838;2024-01-30T10:37:59;15.98;;;5.60;;
54935;SDS011;40838;50.676;7.838;2024-01-30T10:40:27;12.13;;;5.35;;
54935;SDS011;40838;50.676;7.838;2024-01-30T10:42:56;11.43;;;5.85;;
54935;SDS011;40838;50.676;7.838;2024-01-30T10:45:28;10.68;;;5.80;;
54935;SDS011;40838;50.676;7.838;2024-01-30T10:47:57;19.10;;;7.60;;
54935;SDS011;40838;50.676;7.838;2024-01-30T10:50:26;10.73;;;5.85;;
54935;SDS011;40838;50.676;7.838;2024-01-30T10:52:53;9.77;;;6.13;;
54935;SDS011;40838;50.676;7.838;2024-01-30T10:55:21;13.32;;;6.03;;
54935;SDS011;40838;50.676;7.838;2024-01-30T10:57:48;6.80;;;5.25;;
54935;SDS011;40838;50.676;7.838;2024-01-30T11:00:17;16.73;;;6.63;;
54935;SDS011;40838;50.676;7.838;2024-01-30T11:02:48;14.40;;;5.55;;
54935;SDS011;40838;50.676;7.838;2024-01-30T11:05:23;9.18;;;5.07;;
54935;SDS011;40838;50.676;7.838;2024-01-30T11:07:50;9.68;;;6.10;;
54935;SDS011;40838;50.676;7.838;2024-01-30T11:10:17;11.25;;;5.68;;
54935;SDS011;40838;50.676;7.838;2024-01-30T11:12:45;12.63;;;5.45;;
54935;SDS011;40838;50.676;7.838;2024-01-30T11:15:13;11.02;;;5.68;;
54935;SDS011;40838;50.676;7.838;2024-01-30T11:17:49;12.55;;;5.72;;
54935;SDS011;40838;50.676;7.838;2024-01-30T11:20:19;11.27;;;5.45;;
54935;SDS011;40838;50.676;7.838;2024-01-30T11:22:49;9.32;;;5.30;;
54935;SDS011;40838;50.676;7.838;2024-01-30T11:25:19;8.98;;;5.05;;
54935;SDS011;40838;50.676;7.838;2024-01-30T11:27:49;12.27;;;5.38;;
54935;SDS011;40838;50.676;7.838;2024-01-30T11:30:21;9.70;;;5.78;;
54935;SDS011;40838;50.676;7.838;2024-01-30T11:32:59;8.63;;;5.43;;
54935;SDS011;40838;50.676;7.838;2024-01-30T11:35:26;10.45;;;4.95;;
54935;SDS011;40838;50.676;7.838;2024-01-30T11:37:54;11.73;;;5.32;;
54935;SDS011;40838;50.676;7.838;2024-01-30T11:40:23;13.02;;;5.65;;
54935;SDS011;40838;50.676;7.838;2024-01-30T11:42:53;9.68;;;5.18;;
54935;SDS011;40838;50.676;7.838;2024-01-30T11:45:21;8.10;;;4.90;;
54935;SDS011;40838;50.676;7.838;2024-01-30T11:47:48;8.93;;;4.82;;
54935;SDS011;40838;50.676;7.838;2024-01-30T11:50:17;9.63;;;4.90;;
54935;SDS011;40838;50.676;7.838;2024-01-30T11:52:45;9.63;;;4.50;;
54935;SDS011;40838;50.676;7.838;2024-01-30T11:55:12;10.20;;;5.03;;
54935;SDS011;40838;50.676;7.838;2024-01-30T11:57:39;7.05;;;4.03;;
54935;SDS011;40838;50.676;7.838;2024-01-30T12:00:13;8.00;;;4.72;;
54935;SDS011;40838;50.676;7.838;2024-01-30T12:02:41;9.10;;;4.60;;
54935;SDS011;40838;50.676;7.838;2024-01-30T12:05:08;10.35;;;4.57;;
54935;SDS011;40838;50.676;7.838;2024-01-30T12:07:37;7.82;;;4.47;;
54935;SDS011;40838;50.676;7.838;2024-01-30T12:10:04;8.63;;;4.43;;
54935;SDS011;40838;50.676;7.838;2024-01-30T12:12:33;13.70;;;4.57;;
54935;SDS011;40838;50.676;7.838;2024-01-30T12:15:00;8.82;;;4.47;;
54935;SDS011;40838;50.676;7.838;2024-01-30T12:17:28;6.93;;;4.53;;
54935;SDS011;40838;50.676;7.838;2024-01-30T12:20:06;10.75;;;5.22;;
54935;SDS011;40838;50.676;7.838;2024-01-30T12:22:36;9.90;;;4.95;;
54935;SDS011;40838;50.676;7.838;2024-01-30T12:25:07;10.45;;;4.95;;
54935;SDS011;40838;50.676;7.838;2024-01-30T12:27:34;11.10;;;4.80;;
54935;SDS011;40838;50.676;7.838;2024-01-30T12:30:04;9.48;;;4.88;;
54935;SDS011;40838;50.676;7.838;2024-01-30T12:32:34;6.90;;;3.92;;
54935;SDS011;40838;50.676;7.838;2024-01-30T12:35:01;11.88;;;4.63;;
54935;SDS011;40838;50.676;7.838;2024-01-30T12:37:29;7.15;;;4.30;;
54935;SDS011;40838;50.676;7.838;2024-01-30T12:39:58;7.72;;;4.05;;
54935;SDS011;40838;50.676;7.838;2024-01-30T12:42:26;11.77;;;4.55;;
54935;SDS011;40838;50.676;7.838;2024-01-30T12:44:54;8.55;;;4.45;;
54935;SDS011;40838;50.676;7.838;2024-01-30T12:47:21;13.07;;;6.10;;
54935;SDS011;40838;50.676;7.838;2024-01-30T12:49:48;9.55;;;4.70;;
54935;SDS011;40838;50.676;7.838;2024-01-30T12:52:18;8.63;;;4.70;;
54935;SDS011;40838;50.676;7.838;2024-01-30T12:54:46;10.70;;;5.22;;
54935;SDS011;40838;50.676;7.838;2024-01-30T12:57:15;10.45;;;4.20;;
54935;SDS011;40838;50.676;7.838;2024-01-30T12:59:42;10.32;;;4.70;;
54935;SDS011;40838;50.676;7.838;2024-01-30T13:02:10;11.02;;;5.18;;
54935;SDS011;40838;50.676;7.838;2024-01-30T13:04:38;11.98;;;5.68;;
54935;SDS011;40838;50.676;7.838;2024-01-30T13:07:06;8.50;;;4.65;;
54935;SDS011;40838;50.676;7.838;2024-01-30T13:09:33;11.68;;;4.70;;
54935;SDS011;40838;50.676;7.838;2024-01-30T13:12:00;10.82;;;5.05;;
54935;SDS011;40838;50.676;7.838;2024-01-30T13:14:29;12.52;;;4.80;;
54935;SDS011;40838;50.676;7.838;2024-01-30T13:16:56;9.57;;;4.75;;
54935;SDS011;40838;50.676;7.838;2024-01-30T13:19:23;14.38;;;5.75;;
54935;SDS011;40838;50.676;7.838;2024-01-30T13:21:50;12.60;;;5.15;;
54935;SDS011;40838;50.676;7.838;2024-01-30T13:24:17;10.93;;;5.15;;
54935;SDS011;40838;50.676;7.838;2024-01-30T13:26:46;9.45;;;4.85;;
54935;SDS011;40838;50.676;7.838;2024-01-30T13:29:13;12.23;;;5.95;;
54935;SDS011;40838;50.676;7.838;2024-01-30T13:31:42;9.98;;;5.10;;
54935;SDS011;40838;50.676;7.838;2024-01-30T13:34:11;10.10;;;5.22;;
54935;SDS011;40838;50.676;7.838;2024-01-30T13:36:39;16.23;;;6.90;;
54935;SDS011;40838;50.676;7.838;2024-01-30T13:39:06;9.63;;;5.60;;
54935;SDS011;40838;50.676;7.838;2024-01-30T13:41:35;10.10;;;6.00;;
54935;SDS011;40838;50.676;7.838;2024-01-30T13:44:02;8.60;;;5.28;;
54935;SDS011;40838;50.676;7.838;2024-01-30T13:46:30;14.55;;;6.07;;
54935;SDS011;40838;50.676;7.838;2024-01-30T13:49:00;14.57;;;6.18;;
54935;SDS011;40838;50.676;7.838;2024-01-30T13:51:27;11.80;;;5.57;;
54935;SDS011;40838;50.676;7.838;2024-01-30T13:53:54;9.68;;;4.88;;
54935;SDS011;40838;50.676;7.838;2024-01-30T13:56:21;16.05;;;5.78;;
54935;SDS011;40838;50.676;7.838;2024-01-30T13:58:49;15.77;;;8.15;;
54935;SDS011;40838;50.676;7.838;2024-01-30T14:01:21;11.43;;;5.60;;
54935;SDS011;40838;50.676;7.838;2024-01-30T14:04:02;13.50;;;6.28;;
54935;SDS011;40838;50.676;7.838;2024-01-30T14:06:29;9.82;;;4.82;;
54935;SDS011;40838;50.676;7.838;2024-01-30T14:08:56;8.38;;;5.18;;
54935;SDS011;40838;50.676;7.838;2024-01-30T14:11:23;17.08;;;6.85;;
54935;SDS011;40838;50.676;7.838;2024-01-30T14:13:50;18.45;;;6.68;;
54935;SDS011;40838;50.676;7.838;2024-01-30T14:16:17;11.00;;;5.70;;
54935;SDS011;40838;50.676;7.838;2024-01-30T14:18:45;10.23;;;5.10;;
54935;SDS011;40838;50.676;7.838;2024-01-30T14:21:14;11.93;;;6.70;;
54935;SDS011;40838;50.676;7.838;2024-01-30T14:23:41;13.60;;;5.47;;
54935;SDS011;40838;50.676;7.838;2024-01-30T14:26:08;10.57;;;4.72;;
54935;SDS011;40838;50.676;7.838;2024-01-30T14:28:35;8.45;;;5.38;;
54935;SDS011;40838;50.676;7.838;2024-01-30T14:31:02;10.30;;;5.15;;